sensor_id;sensor_type;location;lat;lon;timestamp;P1;durP1;ratioP1;P2;durP2;ratioP2
36433;SDS011;31691;51.972;5.672;2022-07-22T00:02:37;18.25;;;12.32;;
36433;SDS011;31691;51.972;5.672;2022-07-22T00:12:42;18.80;;;12.20;;
36433;SDS011;31691;51.972;5.672;2022-07-22T00:22:46;14.75;;;11.77;;
36433;SDS011;31691;51.972;5.672;2022-07-22T00:32:51;16.38;;;12.25;;
36433;SDS011;31691;51.972;5.672;2022-07-22T00:37:53;14.38;;;12.02;;
36433;SDS011;31691;51.972;5.672;2022-07-22T00:47:58;22.50;;;12.05;;
36433;SDS011;31691;51.972;5.672;2022-07-22T00:58:02;16.13;;;12.25;;
36433;SDS011;31691;51.972;5.672;2022-07-22T01:03:05;13.90;;;12.07;;
36433;SDS011;31691;51.972;5.672;2022-07-22T01:13:10;18.48;;;12.88;;
36433;SDS011;31691;51.972;5.672;2022-07-22T01:23:14;16.48;;;12.68;;
36433;SDS011;31691;51.972;5.672;2022-07-22T01:33:20;15.38;;;12.13;;
36433;SDS011;31691;51.972;5.672;2022-07-22T01:38:23;18.83;;;13.02;;
36433;SDS011;31691;51.972;5.672;2022-07-22T01:43:25;19.25;;;12.57;;
36433;SDS011;31691;51.972;5.672;2022-07-22T01:53:30;19.73;;;13.48;;
36433;SDS011;31691;51.972;5.672;2022-07-22T01:58:32;15.82;;;12.32;;
36433;SDS011;31691;51.972;5.672;2022-07-22T02:03:41;17.15;;;12.32;;
36433;SDS011;31691;51.972;5.672;2022-07-22T02:08:43;13.15;;;11.68;;
36433;SDS011;31691;51.972;5.672;2022-07-22T02:13:45;18.98;;;12.00;;
36433;SDS011;31691;51.972;5.672;2022-07-22T02:23:50;15.25;;;11.85;;
36433;SDS011;31691;51.972;5.672;2022-07-22T02:38:58;14.17;;;12.30;;
36433;SDS011;31691;51.972;5.672;2022-07-22T02:44:01;13.52;;;12.00;;
36433;SDS011;31691;51.972;5.672;2022-07-22T02:49:04;14.05;;;12.80;;
36433;SDS011;31691;51.972;5.672;2022-07-22T02:54:07;14.13;;;12.30;;
36433;SDS011;31691;51.972;5.672;2022-07-22T02:59:09;12.73;;;11.50;;
36433;SDS011;31691;51.972;5.672;2022-07-22T03:09:14;13.75;;;11.35;;
36433;SDS011;31691;51.972;5.672;2022-07-22T03:19:19;14.75;;;12.02;;
36433;SDS011;31691;51.972;5.672;2022-07-22T03:29:24;13.23;;;11.93;;
36433;SDS011;31691;51.972;5.672;2022-07-22T03:34:26;17.38;;;12.30;;
36433;SDS011;31691;51.972;5.672;2022-07-22T03:44:32;14.88;;;11.98;;
36433;SDS011;31691;51.972;5.672;2022-07-22T03:54:37;14.45;;;12.45;;
36433;SDS011;31691;51.972;5.672;2022-07-22T04:04:41;15.30;;;13.65;;
36433;SDS011;31691;51.972;5.672;2022-07-22T04:14:45;13.13;;;11.82;;
36433;SDS011;31691;51.972;5.672;2022-07-22T04:19:47;14.27;;;12.65;;
36433;SDS011;31691;51.972;5.672;2022-07-22T04:29:51;15.25;;;12.65;;
36433;SDS011;31691;51.972;5.672;2022-07-22T04:34:54;13.68;;;12.00;;
36433;SDS011;31691;51.972;5.672;2022-07-22T04:39:56;16.05;;;13.27;;
36433;SDS011;31691;51.972;5.672;2022-07-22T04:50:01;16.70;;;12.57;;
36433;SDS011;31691;51.972;5.672;2022-07-22T05:00:05;14.00;;;12.67;;
36433;SDS011;31691;51.972;5.672;2022-07-22T05:05:08;16.55;;;13.98;;
36433;SDS011;31691;51.972;5.672;2022-07-22T05:10:11;14.75;;;13.20;;
36433;SDS011;31691;51.972;5.672;2022-07-22T05:15:21;16.55;;;13.77;;
36433;SDS011;31691;51.972;5.672;2022-07-22T05:20:23;17.27;;;13.65;;
36433;SDS011;31691;51.972;5.672;2022-07-22T05:25:25;16.25;;;14.02;;
36433;SDS011;31691;51.972;5.672;2022-07-22T05:35:30;16.42;;;13.98;;
36433;SDS011;31691;51.972;5.672;2022-07-22T05:45:34;17.05;;;14.65;;
36433;SDS011;31691;51.972;5.672;2022-07-22T05:50:36;16.67;;;14.15;;
36433;SDS011;31691;51.972;5.672;2022-07-22T06:00:40;15.48;;;13.90;;
36433;SDS011;31691;51.972;5.672;2022-07-22T06:05:43;19.42;;;14.60;;
36433;SDS011;31691;51.972;5.672;2022-07-22T06:10:46;15.75;;;13.98;;
36433;SDS011;31691;51.972;5.672;2022-07-22T06:15:48;17.35;;;14.32;;
36433;SDS011;31691;51.972;5.672;2022-07-22T06:20:51;17.70;;;15.23;;
36433;SDS011;31691;51.972;5.672;2022-07-22T06:25:53;16.35;;;14.85;;
36433;SDS011;31691;51.972;5.672;2022-07-22T06:30:56;17.92;;;15.55;;
36433;SDS011;31691;51.972;5.672;2022-07-22T06:35:58;18.02;;;15.90;;
36433;SDS011;31691;51.972;5.672;2022-07-22T06:41:01;17.95;;;15.50;;
36433;SDS011;31691;51.972;5.672;2022-07-22T06:46:04;17.65;;;15.70;;
36433;SDS011;31691;51.972;5.672;2022-07-22T06:51:06;20.00;;;15.65;;
36433;SDS011;31691;51.972;5.672;2022-07-22T06:56:09;16.40;;;15.02;;
36433;SDS011;31691;51.972;5.672;2022-07-22T07:01:16;16.38;;;14.90;;
36433;SDS011;31691;51.972;5.672;2022-07-22T07:06:19;16.98;;;15.20;;
36433;SDS011;31691;51.972;5.672;2022-07-22T07:11:21;17.50;;;15.77;;
36433;SDS011;31691;51.972;5.672;2022-07-22T07:16:24;17.67;;;15.80;;
36433;SDS011;31691;51.972;5.672;2022-07-22T07:21:26;16.95;;;15.40;;
36433;SDS011;31691;51.972;5.672;2022-07-22T07:26:28;17.38;;;15.68;;
36433;SDS011;31691;51.972;5.672;2022-07-22T07:31:30;17.15;;;15.48;;
36433;SDS011;31691;51.972;5.672;2022-07-22T07:36:36;17.20;;;15.63;;
36433;SDS011;31691;51.972;5.672;2022-07-22T07:41:38;16.15;;;14.55;;
36433;SDS011;31691;51.972;5.672;2022-07-22T07:46:40;18.13;;;14.95;;
36433;SDS011;31691;51.972;5.672;2022-07-22T07:51:42;16.85;;;14.95;;
36433;SDS011;31691;51.972;5.672;2022-07-22T07:56:45;16.35;;;14.68;;
36433;SDS011;31691;51.972;5.672;2022-07-22T08:01:47;16.25;;;14.63;;
36433;SDS011;31691;51.972;5.672;2022-07-22T08:12:03;16.88;;;15.18;;
36433;SDS011;31691;51.972;5.672;2022-07-22T08:17:06;21.17;;;16.42;;
36433;SDS011;31691;51.972;5.672;2022-07-22T08:22:10;16.85;;;15.30;;
36433;SDS011;31691;51.972;5.672;2022-07-22T08:27:12;17.77;;;14.63;;
36433;SDS011;31691;51.972;5.672;2022-07-22T08:32:14;16.80;;;15.05;;
36433;SDS011;31691;51.972;5.672;2022-07-22T08:37:17;18.42;;;15.95;;
36433;SDS011;31691;51.972;5.672;2022-07-22T08:42:21;17.17;;;15.50;;
36433;SDS011;31691;51.972;5.672;2022-07-22T08:47:24;16.52;;;14.93;;
36433;SDS011;31691;51.972;5.672;2022-07-22T08:52:41;16.73;;;15.15;;
36433;SDS011;31691;51.972;5.672;2022-07-22T08:57:45;17.40;;;15.68;;
36433;SDS011;31691;51.972;5.672;2022-07-22T09:02:48;15.38;;;14.00;;
36433;SDS011;31691;51.972;5.672;2022-07-22T09:07:51;16.38;;;14.88;;
36433;SDS011;31691;51.972;5.672;2022-07-22T09:13:00;15.45;;;14.13;;
36433;SDS011;31691;51.972;5.672;2022-07-22T09:18:05;16.80;;;15.15;;
36433;SDS011;31691;51.972;5.672;2022-07-22T09:23:08;16.50;;;14.93;;
36433;SDS011;31691;51.972;5.672;2022-07-22T09:28:14;15.65;;;14.45;;
36433;SDS011;31691;51.972;5.672;2022-07-22T09:33:21;15.90;;;14.50;;
36433;SDS011;31691;51.972;5.672;2022-07-22T09:38:28;16.27;;;14.63;;
36433;SDS011;31691;51.972;5.672;2022-07-22T09:43:34;15.48;;;14.20;;
36433;SDS011;31691;51.972;5.672;2022-07-22T09:48:37;14.63;;;13.52;;
36433;SDS011;31691;51.972;5.672;2022-07-22T09:53:40;15.68;;;14.25;;
36433;SDS011;31691;51.972;5.672;2022-07-22T09:58:43;15.57;;;14.27;;
36433;SDS011;31691;51.972;5.672;2022-07-22T10:03:48;15.50;;;14.27;;
36433;SDS011;31691;51.972;5.672;2022-07-22T10:08:56;15.27;;;13.93;;
36433;SDS011;31691;51.972;5.672;2022-07-22T10:14:07;16.48;;;14.80;;
36433;SDS011;31691;51.972;5.672;2022-07-22T10:19:09;15.73;;;14.48;;
36433;SDS011;31691;51.972;5.672;2022-07-22T10:24:13;15.43;;;14.25;;
36433;SDS011;31691;51.972;5.672;2022-07-22T10:29:23;15.32;;;13.80;;
36433;SDS011;31691;51.972;5.672;2022-07-22T10:34:37;15.40;;;14.15;;
36433;SDS011;31691;51.972;5.672;2022-07-22T10:40:01;14.20;;;12.82;;
36433;SDS011;31691;51.972;5.672;2022-07-22T10:45:27;15.93;;;14.38;;
36433;SDS011;31691;51.972;5.672;2022-07-22T11:01:10;15.35;;;13.82;;
36433;SDS011;31691;51.972;5.672;2022-07-22T11:06:19;14.00;;;12.90;;
36433;SDS011;31691;51.972;5.672;2022-07-22T11:11:39;14.95;;;13.57;;
36433;SDS011;31691;51.972;5.672;2022-07-22T11:16:48;14.45;;;13.32;;
36433;SDS011;31691;51.972;5.672;2022-07-22T11:21:53;14.43;;;13.13;;
36433;SDS011;31691;51.972;5.672;2022-07-22T11:26:58;14.52;;;13.43;;
36433;SDS011;31691;51.972;5.672;2022-07-22T11:32:07;13.90;;;12.55;;
36433;SDS011;31691;51.972;5.672;2022-07-22T11:37:11;15.25;;;13.70;;
36433;SDS011;31691;51.972;5.672;2022-07-22T11:42:15;14.88;;;13.75;;
36433;SDS011;31691;51.972;5.672;2022-07-22T11:47:17;15.35;;;14.20;;
36433;SDS011;31691;51.972;5.672;2022-07-22T11:52:20;15.02;;;13.88;;
36433;SDS011;31691;51.972;5.672;2022-07-22T11:57:22;16.02;;;14.65;;
36433;SDS011;31691;51.972;5.672;2022-07-22T12:02:24;16.05;;;14.38;;
36433;SDS011;31691;51.972;5.672;2022-07-22T12:07:26;16.13;;;14.75;;
36433;SDS011;31691;51.972;5.672;2022-07-22T12:12:44;15.43;;;14.00;;
36433;SDS011;31691;51.972;5.672;2022-07-22T12:17:48;15.95;;;14.43;;
36433;SDS011;31691;51.972;5.672;2022-07-22T12:22:50;15.52;;;14.10;;
36433;SDS011;31691;51.972;5.672;2022-07-22T12:28:01;15.40;;;14.00;;
36433;SDS011;31691;51.972;5.672;2022-07-22T12:33:03;15.40;;;14.10;;
36433;SDS011;31691;51.972;5.672;2022-07-22T12:38:06;16.15;;;14.13;;
36433;SDS011;31691;51.972;5.672;2022-07-22T12:43:10;16.88;;;15.48;;
36433;SDS011;31691;51.972;5.672;2022-07-22T12:48:12;17.42;;;15.77;;
36433;SDS011;31691;51.972;5.672;2022-07-22T12:53:15;15.65;;;14.40;;
36433;SDS011;31691;51.972;5.672;2022-07-22T12:58:20;15.50;;;14.23;;
36433;SDS011;31691;51.972;5.672;2022-07-22T13:03:25;16.35;;;14.90;;
36433;SDS011;31691;51.972;5.672;2022-07-22T13:08:28;17.00;;;15.52;;
36433;SDS011;31691;51.972;5.672;2022-07-22T13:13:46;16.88;;;14.75;;
36433;SDS011;31691;51.972;5.672;2022-07-22T13:18:50;15.90;;;14.52;;
36433;SDS011;31691;51.972;5.672;2022-07-22T13:23:53;17.35;;;16.05;;
36433;SDS011;31691;51.972;5.672;2022-07-22T13:28:56;17.17;;;15.75;;
36433;SDS011;31691;51.972;5.672;2022-07-22T13:33:58;16.15;;;14.70;;
36433;SDS011;31691;51.972;5.672;2022-07-22T13:39:01;17.98;;;16.10;;
36433;SDS011;31691;51.972;5.672;2022-07-22T13:44:05;17.80;;;16.25;;
36433;SDS011;31691;51.972;5.672;2022-07-22T13:49:11;16.88;;;15.18;;
36433;SDS011;31691;51.972;5.672;2022-07-22T13:54:14;17.08;;;15.77;;
36433;SDS011;31691;51.972;5.672;2022-07-22T13:59:16;17.25;;;15.82;;
36433;SDS011;31691;51.972;5.672;2022-07-22T14:04:18;18.70;;;16.88;;
36433;SDS011;31691;51.972;5.672;2022-07-22T14:09:20;17.67;;;15.90;;
36433;SDS011;31691;51.972;5.672;2022-07-22T14:14:38;18.88;;;17.38;;
36433;SDS011;31691;51.972;5.672;2022-07-22T14:19:41;18.00;;;16.25;;
36433;SDS011;31691;51.972;5.672;2022-07-22T14:24:43;17.35;;;15.95;;
36433;SDS011;31691;51.972;5.672;2022-07-22T14:29:45;18.50;;;16.77;;
36433;SDS011;31691;51.972;5.672;2022-07-22T14:34:47;17.70;;;16.17;;
36433;SDS011;31691;51.972;5.672;2022-07-22T14:39:49;17.23;;;15.80;;
36433;SDS011;31691;51.972;5.672;2022-07-22T14:44:52;18.08;;;16.48;;
36433;SDS011;31691;51.972;5.672;2022-07-22T14:49:54;17.63;;;16.13;;
36433;SDS011;31691;51.972;5.672;2022-07-22T14:54:56;17.63;;;16.23;;
36433;SDS011;31691;51.972;5.672;2022-07-22T14:59:59;18.67;;;16.98;;
36433;SDS011;31691;51.972;5.672;2022-07-22T15:05:01;14.60;;;13.40;;
36433;SDS011;31691;51.972;5.672;2022-07-22T15:10:03;15.02;;;13.63;;
36433;SDS011;31691;51.972;5.672;2022-07-22T15:15:06;16.75;;;15.20;;
36433;SDS011;31691;51.972;5.672;2022-07-22T15:20:09;15.60;;;13.75;;
36433;SDS011;31691;51.972;5.672;2022-07-22T15:25:11;16.67;;;15.13;;
36433;SDS011;31691;51.972;5.672;2022-07-22T15:30:14;16.27;;;14.98;;
36433;SDS011;31691;51.972;5.672;2022-07-22T15:35:16;16.70;;;15.50;;
36433;SDS011;31691;51.972;5.672;2022-07-22T15:40:18;18.73;;;16.83;;
36433;SDS011;31691;51.972;5.672;2022-07-22T15:45:22;18.10;;;16.52;;
36433;SDS011;31691;51.972;5.672;2022-07-22T15:50:33;18.70;;;17.10;;
36433;SDS011;31691;51.972;5.672;2022-07-22T15:55:35;18.80;;;17.17;;
36433;SDS011;31691;51.972;5.672;2022-07-22T16:00:37;20.15;;;18.27;;
36433;SDS011;31691;51.972;5.672;2022-07-22T16:05:40;19.90;;;18.15;;
36433;SDS011;31691;51.972;5.672;2022-07-22T16:10:42;19.30;;;17.75;;
36433;SDS011;31691;51.972;5.672;2022-07-22T16:15:45;19.25;;;17.75;;
36433;SDS011;31691;51.972;5.672;2022-07-22T16:20:47;21.20;;;19.40;;
36433;SDS011;31691;51.972;5.672;2022-07-22T16:25:50;21.70;;;19.77;;
36433;SDS011;31691;51.972;5.672;2022-07-22T16:30:53;21.02;;;19.15;;
36433;SDS011;31691;51.972;5.672;2022-07-22T16:35:55;19.73;;;18.13;;
36433;SDS011;31691;51.972;5.672;2022-07-22T16:40:57;20.42;;;18.38;;
36433;SDS011;31691;51.972;5.672;2022-07-22T16:46:00;19.88;;;18.17;;
36433;SDS011;31691;51.972;5.672;2022-07-22T16:51:03;20.63;;;18.83;;
36433;SDS011;31691;51.972;5.672;2022-07-22T16:56:05;19.35;;;17.70;;
36433;SDS011;31691;51.972;5.672;2022-07-22T17:01:08;18.38;;;16.80;;
36433;SDS011;31691;51.972;5.672;2022-07-22T17:06:10;19.05;;;17.48;;
36433;SDS011;31691;51.972;5.672;2022-07-22T17:11:12;19.50;;;17.63;;
36433;SDS011;31691;51.972;5.672;2022-07-22T17:16:14;18.33;;;16.92;;
36433;SDS011;31691;51.972;5.672;2022-07-22T17:21:17;18.83;;;17.20;;
36433;SDS011;31691;51.972;5.672;2022-07-22T17:26:20;18.77;;;17.05;;
36433;SDS011;31691;51.972;5.672;2022-07-22T17:31:23;17.77;;;16.27;;
36433;SDS011;31691;51.972;5.672;2022-07-22T17:36:26;16.40;;;15.10;;
36433;SDS011;31691;51.972;5.672;2022-07-22T17:41:28;16.83;;;15.23;;
36433;SDS011;31691;51.972;5.672;2022-07-22T17:46:30;16.48;;;14.98;;
36433;SDS011;31691;51.972;5.672;2022-07-22T17:51:32;16.48;;;15.07;;
36433;SDS011;31691;51.972;5.672;2022-07-22T17:56:35;16.27;;;14.88;;
36433;SDS011;31691;51.972;5.672;2022-07-22T18:01:37;15.70;;;14.40;;
36433;SDS011;31691;51.972;5.672;2022-07-22T18:06:41;15.93;;;14.63;;
36433;SDS011;31691;51.972;5.672;2022-07-22T18:11:44;15.70;;;14.40;;
36433;SDS011;31691;51.972;5.672;2022-07-22T18:16:46;15.25;;;13.75;;
36433;SDS011;31691;51.972;5.672;2022-07-22T18:21:48;15.27;;;14.13;;
36433;SDS011;31691;51.972;5.672;2022-07-22T18:26:50;15.82;;;14.43;;
36433;SDS011;31691;51.972;5.672;2022-07-22T18:31:53;14.80;;;13.70;;
36433;SDS011;31691;51.972;5.672;2022-07-22T18:36:55;15.50;;;13.98;;
36433;SDS011;31691;51.972;5.672;2022-07-22T18:41:58;13.98;;;12.95;;
36433;SDS011;31691;51.972;5.672;2022-07-22T18:47:00;14.88;;;13.55;;
36433;SDS011;31691;51.972;5.672;2022-07-22T18:52:03;14.55;;;13.40;;
36433;SDS011;31691;51.972;5.672;2022-07-22T18:57:05;14.60;;;13.35;;
36433;SDS011;31691;51.972;5.672;2022-07-22T19:02:08;14.45;;;13.45;;
36433;SDS011;31691;51.972;5.672;2022-07-22T19:07:10;14.85;;;13.30;;
36433;SDS011;31691;51.972;5.672;2022-07-22T19:17:14;14.57;;;13.45;;
36433;SDS011;31691;51.972;5.672;2022-07-22T19:27:22;22.38;;;13.80;;
36433;SDS011;31691;51.972;5.672;2022-07-22T19:32:24;15.55;;;14.05;;
36433;SDS011;31691;51.972;5.672;2022-07-22T19:37:26;14.90;;;13.80;;
36433;SDS011;31691;51.972;5.672;2022-07-22T19:42:29;14.50;;;13.40;;
36433;SDS011;31691;51.972;5.672;2022-07-22T19:47:32;14.48;;;13.38;;
36433;SDS011;31691;51.972;5.672;2022-07-22T19:57:37;14.25;;;13.25;;
36433;SDS011;31691;51.972;5.672;2022-07-22T20:02:39;14.27;;;13.18;;
36433;SDS011;31691;51.972;5.672;2022-07-22T20:07:42;13.75;;;12.65;;
36433;SDS011;31691;51.972;5.672;2022-07-22T20:12:44;13.85;;;12.85;;
36433;SDS011;31691;51.972;5.672;2022-07-22T20:22:48;13.68;;;12.57;;
36433;SDS011;31691;51.972;5.672;2022-07-22T20:32:53;13.23;;;12.30;;
36433;SDS011;31691;51.972;5.672;2022-07-22T20:37:55;13.65;;;12.75;;
36433;SDS011;31691;51.972;5.672;2022-07-22T20:42:57;13.20;;;12.30;;
36433;SDS011;31691;51.972;5.672;2022-07-22T20:48:00;14.18;;;12.98;;
36433;SDS011;31691;51.972;5.672;2022-07-22T20:58:05;14.60;;;13.50;;
36433;SDS011;31691;51.972;5.672;2022-07-22T21:08:09;14.10;;;12.90;;
36433;SDS011;31691;51.972;5.672;2022-07-22T21:13:13;15.00;;;13.73;;
36433;SDS011;31691;51.972;5.672;2022-07-22T21:18:20;13.93;;;12.82;;
36433;SDS011;31691;51.972;5.672;2022-07-22T21:23:22;13.98;;;12.85;;
36433;SDS011;31691;51.972;5.672;2022-07-22T21:28:24;14.07;;;12.98;;
36433;SDS011;31691;51.972;5.672;2022-07-22T21:38:30;12.70;;;11.55;;
36433;SDS011;31691;51.972;5.672;2022-07-22T21:48:35;13.00;;;12.00;;
36433;SDS011;31691;51.972;5.672;2022-07-22T21:53:37;13.65;;;12.32;;
36433;SDS011;31691;51.972;5.672;2022-07-22T22:03:41;13.82;;;12.40;;
36433;SDS011;31691;51.972;5.672;2022-07-22T22:08:47;13.23;;;12.13;;
36433;SDS011;31691;51.972;5.672;2022-07-22T22:18:51;13.43;;;12.32;;
36433;SDS011;31691;51.972;5.672;2022-07-22T22:23:56;12.63;;;11.63;;
36433;SDS011;31691;51.972;5.672;2022-07-22T22:29:03;13.60;;;12.30;;
36433;SDS011;31691;51.972;5.672;2022-07-22T22:34:07;13.05;;;12.13;;
36433;SDS011;31691;51.972;5.672;2022-07-22T22:39:09;14.63;;;13.10;;
36433;SDS011;31691;51.972;5.672;2022-07-22T22:44:11;13.70;;;12.70;;
36433;SDS011;31691;51.972;5.672;2022-07-22T22:54:16;15.95;;;13.52;;
36433;SDS011;31691;51.972;5.672;2022-07-22T22:59:18;13.88;;;12.82;;
36433;SDS011;31691;51.972;5.672;2022-07-22T23:09:22;14.55;;;13.25;;
36433;SDS011;31691;51.972;5.672;2022-07-22T23:14:25;14.02;;;12.82;;
36433;SDS011;31691;51.972;5.672;2022-07-22T23:19:27;13.90;;;12.75;;
36433;SDS011;31691;51.972;5.672;2022-07-22T23:24:30;14.00;;;12.80;;
36433;SDS011;31691;51.972;5.672;2022-07-22T23:29:32;14.55;;;13.15;;
36433;SDS011;31691;51.972;5.672;2022-07-22T23:39:36;12.43;;;11.57;;
36433;SDS011;31691;51.972;5.672;2022-07-22T23:44:39;14.77;;;12.85;;
36433;SDS011;31691;51.972;5.672;2022-07-22T23:49:41;13.32;;;12.40;;
36433;SDS011;31691;51.972;5.672;2022-07-22T23:54:43;13.07;;;12.10;;
36433;SDS011;31691;51.972;5.672;2022-07-22T23:59:45;14.40;;;13.13;;
